createdAt,value
2018-08-31T00:00:43.023Z,24.66
2018-08-31T00:04:54.992Z,24.65
2018-08-31T00:08:04.893Z,24.63
2018-08-31T00:11:14.090Z,24.62
2018-08-31T00:14:12.388Z,24.61
2018-08-31T00:17:11.385Z,24.60
2018-08-31T00:20:09.652Z,24.60
2018-08-31T00:23:08.746Z,24.60
2018-08-31T00:26:30.449Z,24.59
2018-08-31T00:30:10.780Z,24.59
2018-08-31T00:33:21.283Z,24.57
2018-08-31T00:36:31.389Z,24.54
2018-08-31T00:39:43.957Z,24.54
2018-08-31T00:43:11.270Z,24.55
2018-08-31T00:46:10.571Z,24.54
2018-08-31T00:49:08.805Z,24.53
2018-08-31T00:52:06.739Z,24.52
2018-08-31T00:55:05.912Z,24.53
2018-08-31T00:58:03.980Z,24.52
2018-08-31T01:01:02.081Z,24.53
2018-08-31T01:04:01.289Z,24.54
2018-08-31T01:07:00.599Z,24.53
2018-08-31T01:09:59.528Z,24.53
2018-08-31T01:12:58.684Z,24.52
2018-08-31T01:15:56.981Z,24.52
2018-08-31T01:18:55.992Z,24.52
2018-08-31T01:21:55.031Z,24.52
2018-08-31T01:24:53.205Z,24.52
2018-08-31T01:27:51.333Z,24.52
2018-08-31T01:30:50.445Z,24.53
2018-08-31T01:33:48.436Z,24.53
2018-08-31T01:36:47.774Z,24.53
2018-08-31T01:39:45.826Z,24.53
2018-08-31T01:42:45.258Z,24.54
2018-08-31T01:45:43.461Z,24.53
2018-08-31T01:48:41.522Z,24.54
2018-08-31T01:51:40.025Z,24.53
2018-08-31T01:54:38.834Z,24.54
2018-08-31T01:57:37.915Z,24.54
2018-08-31T02:00:36.962Z,24.53
2018-08-31T02:03:36.194Z,24.54
2018-08-31T02:06:34.277Z,24.54
2018-08-31T02:09:32.587Z,24.55
2018-08-31T02:12:30.882Z,24.54
2018-08-31T02:15:30.367Z,24.54
2018-08-31T02:18:28.437Z,24.55
2018-08-31T02:21:27.309Z,24.55
2018-08-31T02:24:26.278Z,24.54
2018-08-31T02:27:24.533Z,24.54
2018-08-31T02:30:22.362Z,24.54
2018-08-31T02:33:21.778Z,24.54
2018-08-31T02:36:20.676Z,24.54
2018-08-31T02:39:19.145Z,24.54
2018-08-31T02:42:18.054Z,24.52
2018-08-31T02:45:17.458Z,24.53
2018-08-31T02:48:16.456Z,24.51
2018-08-31T02:51:14.630Z,24.52
2018-08-31T02:54:13.647Z,24.51
2018-08-31T02:57:11.985Z,24.51
2018-08-31T03:00:10.828Z,24.49
2018-08-31T03:03:08.877Z,24.49
2018-08-31T03:06:07.082Z,24.49
2018-08-31T03:09:05.627Z,24.48
2018-08-31T03:12:03.531Z,24.49
2018-08-31T03:15:02.801Z,24.48
2018-08-31T03:18:01.830Z,24.48
2018-08-31T03:21:00.145Z,24.47
2018-08-31T03:23:59.641Z,24.47
2018-08-31T03:26:57.857Z,24.47
2018-08-31T03:29:56.765Z,24.46
2018-08-31T03:32:56.005Z,24.45
2018-08-31T03:35:53.954Z,24.45
2018-08-31T03:38:53.087Z,24.45
2018-08-31T03:41:52.181Z,24.44
2018-08-31T03:44:50.470Z,24.44
2018-08-31T03:47:49.142Z,24.43
2018-08-31T03:50:47.040Z,24.44
2018-08-31T03:53:45.865Z,24.45
2018-08-31T03:56:45.121Z,24.43
2018-08-31T03:59:44.293Z,24.43
2018-08-31T04:02:43.545Z,24.44
2018-08-31T04:05:42.797Z,24.44
2018-08-31T04:08:41.214Z,24.45
2018-08-31T04:11:39.284Z,24.44
2018-08-31T04:14:37.616Z,24.45
2018-08-31T04:17:36.668Z,24.45
2018-08-31T04:20:34.695Z,24.45
2018-08-31T04:23:33.831Z,24.45
2018-08-31T04:26:33.072Z,24.45
2018-08-31T04:29:31.013Z,24.45
2018-08-31T04:32:29.449Z,24.45
2018-08-31T04:35:27.814Z,24.45
2018-08-31T04:38:27.108Z,24.45
2018-08-31T04:41:26.115Z,24.46
2018-08-31T04:44:25.697Z,24.46
2018-08-31T04:47:24.804Z,24.47
2018-08-31T04:50:24.111Z,24.46
2018-08-31T04:53:22.996Z,24.45
2018-08-31T04:56:23.222Z,24.46
2018-08-31T04:59:22.116Z,24.47
2018-08-31T05:02:20.420Z,24.44
2018-08-31T05:05:19.460Z,24.42
2018-08-31T05:08:19.015Z,24.45
2018-08-31T05:11:17.908Z,24.44
2018-08-31T05:14:17.230Z,24.45
2018-08-31T05:17:16.618Z,24.43
2018-08-31T05:20:15.635Z,24.42
2018-08-31T05:23:14.877Z,24.43
2018-08-31T05:26:13.427Z,24.42
2018-08-31T05:29:12.375Z,24.43
2018-08-31T05:32:10.283Z,24.41
2018-08-31T05:35:09.292Z,24.40
2018-08-31T05:38:08.617Z,24.41
2018-08-31T05:41:06.470Z,24.40
2018-08-31T05:44:04.683Z,24.41
2018-08-31T05:47:02.721Z,24.41
2018-08-31T05:50:01.009Z,24.42
2018-08-31T05:52:59.783Z,24.41
2018-08-31T05:55:58.364Z,24.42
2018-08-31T05:58:56.467Z,24.42
2018-08-31T06:01:55.590Z,24.42
2018-08-31T06:04:53.626Z,24.42
2018-08-31T06:07:51.642Z,24.42
2018-08-31T06:10:49.704Z,24.43
2018-08-31T06:13:48.042Z,24.43
2018-08-31T06:16:46.134Z,24.44
2018-08-31T06:19:44.609Z,24.44
2018-08-31T06:22:43.194Z,24.45
2018-08-31T06:25:41.365Z,24.45
2018-08-31T06:28:39.386Z,24.46
2018-08-31T06:31:37.455Z,24.45
2018-08-31T06:34:35.468Z,24.46
2018-08-31T06:37:33.717Z,24.46
2018-08-31T06:40:31.769Z,24.46
2018-08-31T06:43:29.589Z,24.46
2018-08-31T06:46:27.512Z,24.46
2018-08-31T06:49:26.677Z,24.47
2018-08-31T06:52:24.928Z,24.46
2018-08-31T06:55:22.937Z,24.47
2018-08-31T06:58:20.901Z,24.47
2018-08-31T07:01:20.169Z,24.47
2018-08-31T07:04:19.713Z,24.46
2018-08-31T07:07:18.289Z,24.47
2018-08-31T07:10:16.554Z,24.47
2018-08-31T07:13:14.935Z,24.47
2018-08-31T07:16:13.899Z,24.47
2018-08-31T07:19:12.036Z,24.47
2018-08-31T07:22:09.842Z,24.47
2018-08-31T07:25:07.986Z,24.46
2018-08-31T07:28:06.132Z,24.46
2018-08-31T07:31:05.424Z,24.45
2018-08-31T07:34:03.309Z,24.45
2018-08-31T07:37:01.300Z,24.45
2018-08-31T07:40:00.311Z,24.45
2018-08-31T07:42:58.895Z,24.44
2018-08-31T07:45:57.574Z,24.44
2018-08-31T07:48:55.582Z,24.45
2018-08-31T07:51:53.677Z,24.45
2018-08-31T07:54:51.829Z,24.43
2018-08-31T07:57:49.600Z,24.44
2018-08-31T08:00:47.634Z,24.44
2018-08-31T08:03:45.967Z,24.44
2018-08-31T08:06:43.994Z,24.44
2018-08-31T08:09:42.490Z,24.43
2018-08-31T08:12:41.721Z,24.43
2018-08-31T08:15:40.093Z,24.42
2018-08-31T08:18:38.348Z,24.42
2018-08-31T08:21:36.686Z,24.41
2018-08-31T08:24:34.811Z,24.41
2018-08-31T08:27:32.764Z,24.41
2018-08-31T08:30:30.944Z,24.40
2018-08-31T08:33:29.147Z,24.40
2018-08-31T08:36:27.206Z,24.39
2018-08-31T08:39:25.057Z,24.39
2018-08-31T08:42:23.264Z,24.39
2018-08-31T08:45:21.320Z,24.39
2018-08-31T08:48:19.778Z,24.39
2018-08-31T08:51:17.657Z,24.39
2018-08-31T08:54:15.973Z,24.39
2018-08-31T08:57:14.925Z,24.39
2018-08-31T09:00:13.273Z,24.39
2018-08-31T09:03:11.330Z,24.41
2018-08-31T09:06:09.469Z,24.41
2018-08-31T09:09:07.481Z,24.41
2018-08-31T09:12:05.953Z,24.41
2018-08-31T09:15:03.939Z,24.42
2018-08-31T09:18:02.097Z,24.42
2018-08-31T09:21:00.092Z,24.43
2018-08-31T09:23:58.450Z,24.43
2018-08-31T09:26:56.783Z,24.41
2018-08-31T09:29:55.500Z,24.43
2018-08-31T09:32:53.789Z,24.43
2018-08-31T09:35:52.026Z,24.43
2018-08-31T09:38:51.089Z,24.43
2018-08-31T09:41:49.477Z,24.44
2018-08-31T09:44:47.610Z,24.45
2018-08-31T09:47:45.690Z,24.44
2018-08-31T09:50:44.786Z,24.45
2018-08-31T09:53:43.112Z,24.44
2018-08-31T09:56:41.155Z,24.44
2018-08-31T09:59:39.571Z,24.45
2018-08-31T10:02:43.464Z,24.45
2018-08-31T10:05:41.565Z,24.45
2018-08-31T10:08:39.534Z,24.44
2018-08-31T10:11:37.919Z,24.43
2018-08-31T10:14:35.876Z,24.43
2018-08-31T10:17:34.350Z,24.43
2018-08-31T10:20:32.544Z,24.43
2018-08-31T10:23:30.727Z,24.44
2018-08-31T10:26:28.887Z,24.42
2018-08-31T10:29:27.031Z,24.43
2018-08-31T10:32:25.041Z,24.43
2018-08-31T10:35:23.324Z,24.43
2018-08-31T10:38:21.325Z,24.42
2018-08-31T10:41:21.766Z,24.42
2018-08-31T10:44:19.995Z,24.42
2018-08-31T10:47:18.129Z,24.42
2018-08-31T10:50:17.072Z,24.41
2018-08-31T10:53:15.122Z,24.41
2018-08-31T10:56:14.186Z,24.41
2018-08-31T10:59:12.291Z,24.41
2018-08-31T11:02:10.273Z,24.41
2018-08-31T11:05:08.371Z,24.41
2018-08-31T11:08:06.263Z,24.42
2018-08-31T11:11:04.321Z,24.41
2018-08-31T11:14:03.223Z,24.41
2018-08-31T11:17:01.656Z,24.43
2018-08-31T11:20:00.326Z,24.42
2018-08-31T11:22:58.501Z,24.43
2018-08-31T11:25:56.364Z,24.43
2018-08-31T11:28:54.670Z,24.44
2018-08-31T11:31:52.630Z,24.44
2018-08-31T11:34:50.863Z,24.44
2018-08-31T11:37:48.849Z,24.44
2018-08-31T11:40:47.138Z,24.45
2018-08-31T11:43:50.357Z,24.46
2018-08-31T11:46:48.570Z,24.46
2018-08-31T11:49:46.941Z,24.46
2018-08-31T11:52:45.358Z,24.46
2018-08-31T11:55:44.661Z,24.46
2018-08-31T11:58:42.833Z,24.46
2018-08-31T12:01:49.269Z,24.47
2018-08-31T12:04:47.460Z,24.47
2018-08-31T12:07:45.695Z,24.48
2018-08-31T12:10:43.789Z,24.48
2018-08-31T12:13:41.589Z,24.47
2018-08-31T12:16:39.887Z,24.47
2018-08-31T12:19:37.733Z,24.47
2018-08-31T12:22:35.854Z,24.47
2018-08-31T12:25:33.860Z,24.47
2018-08-31T12:28:33.102Z,24.47
2018-08-31T12:31:31.162Z,24.47
2018-08-31T12:34:30.282Z,24.47
2018-08-31T12:37:29.128Z,24.47
2018-08-31T12:40:28.323Z,24.46
2018-08-31T12:43:26.318Z,24.46
2018-08-31T12:46:24.680Z,24.46
2018-08-31T12:49:22.442Z,24.45
2018-08-31T12:52:20.580Z,24.45
2018-08-31T12:55:18.329Z,24.44
2018-08-31T12:58:16.666Z,24.43
2018-08-31T13:01:14.470Z,24.43
2018-08-31T13:04:12.977Z,24.43
2018-08-31T13:07:11.022Z,24.42
2018-08-31T13:10:09.064Z,24.42
2018-08-31T13:13:07.179Z,24.42
2018-08-31T13:16:06.560Z,24.41
2018-08-31T13:19:05.272Z,24.41
2018-08-31T13:22:03.395Z,24.41
2018-08-31T13:25:01.451Z,24.40
2018-08-31T13:27:59.574Z,24.39
2018-08-31T13:30:58.200Z,24.39
2018-08-31T13:33:57.282Z,24.39
2018-08-31T13:37:10.641Z,24.39
2018-08-31T13:40:08.940Z,24.37
2018-08-31T13:43:07.857Z,24.37
2018-08-31T13:46:07.400Z,24.37
2018-08-31T13:49:05.393Z,24.37
2018-08-31T13:52:03.402Z,24.37
2018-08-31T13:55:02.393Z,24.38
2018-08-31T13:58:00.626Z,24.37
2018-08-31T14:00:58.720Z,24.37
2018-08-31T14:03:57.847Z,24.38
2018-08-31T14:06:56.989Z,24.39
2018-08-31T14:09:55.102Z,24.39
2018-08-31T14:12:54.684Z,24.38
2018-08-31T14:15:54.334Z,24.38
2018-08-31T14:18:52.997Z,24.38
2018-08-31T14:21:51.118Z,24.38
2018-08-31T14:24:49.380Z,24.39
2018-08-31T14:27:47.300Z,24.39
2018-08-31T14:30:45.496Z,24.39
2018-08-31T14:33:44.555Z,24.36
2018-08-31T14:36:42.565Z,24.40
2018-08-31T14:39:41.490Z,24.39
2018-08-31T14:42:39.708Z,24.39
2018-08-31T14:45:38.735Z,24.40
2018-08-31T14:48:36.783Z,24.40
2018-08-31T14:51:34.886Z,24.39
2018-08-31T14:54:33.738Z,24.39
2018-08-31T14:57:31.926Z,24.38
2018-08-31T15:00:30.140Z,24.38
2018-08-31T15:03:28.094Z,24.38
2018-08-31T15:06:27.081Z,24.38
2018-08-31T15:09:24.966Z,24.37
2018-08-31T15:12:23.066Z,24.36
2018-08-31T15:15:22.166Z,24.36
2018-08-31T15:18:21.295Z,24.36
2018-08-31T15:21:19.416Z,24.35
2018-08-31T15:24:18.136Z,24.35
2018-08-31T15:27:16.357Z,24.35
2018-08-31T15:30:14.736Z,24.34
2018-08-31T15:33:12.697Z,24.34
2018-08-31T15:36:10.914Z,24.34
2018-08-31T15:39:08.976Z,24.33
2018-08-31T15:42:07.218Z,24.33
2018-08-31T15:45:05.276Z,24.32
2018-08-31T15:48:04.362Z,24.31
2018-08-31T15:51:02.235Z,24.31
2018-08-31T15:54:00.488Z,24.31
2018-08-31T15:56:59.147Z,24.30
2018-08-31T15:59:57.060Z,24.29
2018-08-31T16:02:55.055Z,24.29
2018-08-31T16:05:53.088Z,24.29
2018-08-31T16:08:51.051Z,24.27
2018-08-31T16:11:50.121Z,24.27
2018-08-31T16:14:48.238Z,24.27
2018-08-31T16:17:47.310Z,24.29
2018-08-31T16:20:46.231Z,24.27
2018-08-31T16:23:44.174Z,24.27
2018-08-31T16:26:42.224Z,24.28
2018-08-31T16:29:43.284Z,24.27
2018-08-31T16:32:41.362Z,24.29
2018-08-31T16:35:39.721Z,24.30
2018-08-31T16:38:37.681Z,24.31
2018-08-31T16:41:35.764Z,24.33
2018-08-31T16:44:33.553Z,24.33
2018-08-31T16:47:32.911Z,24.35
2018-08-31T16:50:30.679Z,24.36
2018-08-31T16:53:30.205Z,24.37
2018-08-31T16:56:29.976Z,24.33
2018-08-31T16:59:27.816Z,24.39
2018-08-31T17:02:25.853Z,24.40
2018-08-31T17:05:24.128Z,24.41
2018-08-31T17:08:22.190Z,24.43
2018-08-31T17:11:20.233Z,24.42
2018-08-31T17:14:19.281Z,24.43
2018-08-31T17:17:17.552Z,24.43
2018-08-31T17:20:16.665Z,24.43
2018-08-31T17:23:15.649Z,24.43
2018-08-31T17:26:14.544Z,24.41
2018-08-31T17:29:18.754Z,24.42
2018-08-31T17:32:22.938Z,24.42
2018-08-31T17:35:26.912Z,24.40
2018-08-31T17:38:26.211Z,24.40
2018-08-31T17:41:24.054Z,24.40
2018-08-31T17:44:23.158Z,24.38
2018-08-31T17:47:23.519Z,24.39
2018-08-31T17:50:23.549Z,24.38
2018-08-31T17:53:22.358Z,24.36
2018-08-31T17:56:21.586Z,24.36
2018-08-31T17:59:21.789Z,24.35
2018-08-31T18:02:21.364Z,24.36
2018-08-31T18:05:20.876Z,24.35
2018-08-31T18:08:19.272Z,24.35
2018-08-31T18:11:18.661Z,24.34
2018-08-31T18:14:16.853Z,24.33
2018-08-31T18:17:15.952Z,24.29
2018-08-31T18:20:15.049Z,24.32
2018-08-31T18:23:14.335Z,24.31
2018-08-31T18:26:13.516Z,24.31
2018-08-31T18:29:11.696Z,24.30
2018-08-31T18:32:11.446Z,24.29
2018-08-31T18:35:10.755Z,24.28
2018-08-31T18:38:09.953Z,24.27
2018-08-31T18:41:09.162Z,24.28
2018-08-31T18:44:08.365Z,24.27
2018-08-31T18:47:06.955Z,24.27
2018-08-31T18:50:06.769Z,24.26
2018-08-31T18:53:05.870Z,24.25
2018-08-31T18:56:04.974Z,24.26
2018-08-31T18:59:03.182Z,24.26
2018-08-31T19:02:02.279Z,24.26
2018-08-31T19:05:01.584Z,24.25
2018-08-31T19:08:01.058Z,24.25
2018-08-31T19:11:00.440Z,24.25
2018-08-31T19:13:59.827Z,24.27
2018-08-31T19:16:59.484Z,24.27
2018-08-31T19:19:58.492Z,24.27
2018-08-31T19:22:56.856Z,24.26
2018-08-31T19:25:55.866Z,24.27
2018-08-31T19:28:54.112Z,24.26
2018-08-31T19:31:52.112Z,24.27
2018-08-31T19:34:51.214Z,24.26
2018-08-31T19:37:50.420Z,24.26
2018-08-31T19:40:48.425Z,24.27
2018-08-31T19:43:47.498Z,24.27
2018-08-31T19:46:46.767Z,24.27
2018-08-31T19:49:45.500Z,24.26
2018-08-31T19:52:43.862Z,24.26
2018-08-31T19:55:42.750Z,24.26
2018-08-31T19:58:40.941Z,24.25
2018-08-31T20:01:40.040Z,24.27
2018-08-31T20:04:39.072Z,24.27
2018-08-31T20:07:37.126Z,24.26
2018-08-31T20:10:35.184Z,24.25
2018-08-31T20:13:33.570Z,24.25
2018-08-31T20:16:32.582Z,24.25
2018-08-31T20:19:30.973Z,24.25
2018-08-31T20:22:33.588Z,24.25
2018-08-31T20:25:31.832Z,24.24
2018-08-31T20:28:33.385Z,24.24
2018-08-31T20:31:31.465Z,24.23
2018-08-31T20:34:30.877Z,24.23
2018-08-31T20:37:29.767Z,24.23
2018-08-31T20:40:28.795Z,24.22
2018-08-31T20:43:26.741Z,24.21
2018-08-31T20:46:26.130Z,24.22
2018-08-31T20:49:25.754Z,24.22
2018-08-31T20:52:25.088Z,24.21
2018-08-31T20:55:24.373Z,24.21
2018-08-31T20:58:23.808Z,24.20
2018-08-31T21:01:21.952Z,24.19
2018-08-31T21:04:21.065Z,24.20
2018-08-31T21:07:21.286Z,24.19
2018-08-31T21:10:19.537Z,24.19
2018-08-31T21:13:18.631Z,24.18
2018-08-31T21:16:17.909Z,24.18
2018-08-31T21:19:15.985Z,24.19
2018-08-31T21:22:15.307Z,24.18
2018-08-31T21:25:14.134Z,24.20
2018-08-31T21:28:12.203Z,24.20
2018-08-31T21:31:11.303Z,24.20
2018-08-31T21:34:09.529Z,24.21
2018-08-31T21:37:07.534Z,24.21
2018-08-31T21:40:05.796Z,24.21
2018-08-31T21:43:03.551Z,24.22
2018-08-31T21:46:01.694Z,24.22
2018-08-31T21:48:59.619Z,24.23
2018-08-31T21:51:57.748Z,24.23
2018-08-31T21:54:55.731Z,24.23
2018-08-31T21:57:55.055Z,24.23
2018-08-31T22:00:53.414Z,24.23
2018-08-31T22:03:52.717Z,24.24
2018-08-31T22:06:51.913Z,24.24
2018-08-31T22:09:50.562Z,24.25
2018-08-31T22:12:50.425Z,24.24
2018-08-31T22:15:48.770Z,24.25
2018-08-31T22:18:47.502Z,24.25
2018-08-31T22:21:45.843Z,24.25
2018-08-31T22:24:43.738Z,24.22
2018-08-31T22:27:41.828Z,24.25
2018-08-31T22:30:39.995Z,24.25
2018-08-31T22:33:39.298Z,24.24
2018-08-31T22:36:39.423Z,24.25
2018-08-31T22:39:37.774Z,24.25
2018-08-31T22:42:36.001Z,24.23
2018-08-31T22:45:33.971Z,24.21
2018-08-31T22:48:32.602Z,24.23
2018-08-31T22:51:31.863Z,24.23
2018-08-31T22:54:31.783Z,24.23
2018-08-31T22:57:31.498Z,24.23
2018-08-31T23:00:30.568Z,24.23
2018-08-31T23:03:28.989Z,24.22
2018-08-31T23:06:28.287Z,24.21
2018-08-31T23:09:27.374Z,24.21
2018-08-31T23:12:25.360Z,24.22
2018-08-31T23:15:24.484Z,24.21
2018-08-31T23:18:23.424Z,24.21
2018-08-31T23:21:23.604Z,24.20
2018-08-31T23:24:22.841Z,24.20
2018-08-31T23:27:23.220Z,24.20
2018-08-31T23:30:23.451Z,24.19
2018-08-31T23:33:22.548Z,24.18
2018-08-31T23:36:20.628Z,24.16
2018-08-31T23:39:19.819Z,24.18
2018-08-31T23:42:19.443Z,24.15
2018-08-31T23:45:19.051Z,24.18
2018-08-31T23:48:17.935Z,24.18
2018-08-31T23:51:17.656Z,24.15
2018-08-31T23:54:16.858Z,24.18
2018-08-31T23:57:15.347Z,24.18
